Markham, Canada
Current Conditions -  °F | °C
As of 1:00 AM on Wednesday 22 Oct 2014 (Local Time) from CYKZ Reporting Station
Overcast Overcast  
Wind Chill:   Ceiling: 4500
Heat Index:   Visibility: 15mi
Dew Point:   Wind: 8mph
Humidity: 81%   Direction: 10°N
Pressure: 30.17"   Gusts: NA
Location:  43.86°N, 79.34°W
Report Text: CYKZ 220500Z 01007KT 15SM BKN045 OVC080 06/03 A3017 RMK SC7AC1SLP221
Loading
Personal Weather Stations






























Interactive Weather Map
Tropical Storm Tracking
New forecast layout! Learn more

10-Day Weather Forecast

Advertisements
Track Severe Weather on mobile